Time;durP1;ratioP1;P1;durP2;ratioP2;P2;SDS_P1;SDS_P2;PMS_P1;PMS_P2;Temp;Humidity;BMP_temperature;BMP_pressure;BME280_temperature;BME280_humidity;BME280_pressure;Samples;Min_cycle;Max_cycle;Signal;HPM_P1;HPM_P2
2023/09/10 05:30:44;;;;;;;;;14.00;12.67;;;;;;;;6196894;22;46513;-74
2023/09/10 05:33:09;;;;;;;;;17.67;16.67;;;;;;;;6273821;22;45550;-74
2023/09/10 05:35:34;;;;;;;;;15.00;12.33;;;;;;;;6277556;22;45433;-74
2023/09/10 05:38:00;;;;;;;;;14.00;14.00;;;;;;;;6306004;22;45563;-73
2023/09/10 05:40:25;;;;;;;;;19.33;17.00;;;;;;;;6276360;22;46700;-73
2023/09/10 05:42:50;;;;;;;;;20.33;16.67;;;;;;;;6277342;22;45252;-76
2023/09/10 05:45:15;;;;;;;;;19.33;16.00;;;;;;;;6277669;22;45238;-73
2023/09/10 05:47:41;;;;;;;;;16.33;15.67;;;;;;;;6277739;22;45841;-74
2023/09/10 05:50:06;;;;;;;;;12.67;12.00;;;;;;;;6306297;22;45188;-74
2023/09/10 05:52:31;;;;;;;;;17.67;16.00;;;;;;;;6306989;22;45274;-74
2023/09/10 05:54:56;;;;;;;;;16.67;15.33;;;;;;;;6307890;22;45278;-73
2023/09/10 05:57:22;;;;;;;;;21.00;16.00;;;;;;;;6278799;22;45799;-74
2023/09/10 05:59:47;;;;;;;;;18.00;16.00;;;;;;;;6307609;22;46592;-76
2023/09/10 06:02:12;;;;;;;;;16.67;15.00;;;;;;;;6306776;22;45287;-75
2023/09/10 06:04:37;;;;;;;;;19.33;16.00;;;;;;;;6307595;22;45321;-77
2023/09/10 06:07:05;;;;;;;;;15.00;15.00;;;;;;;;6306056;22;45541;-75
2023/09/10 06:09:31;;;;;;;;;14.00;11.67;;;;;;;;6306595;22;45310;-75
2023/09/10 06:11:57;;;;;;;;;16.67;15.67;;;;;;;;6307051;22;45347;-76
2023/09/10 06:14:22;;;;;;;;;16.67;15.00;;;;;;;;6306828;22;45295;-74
2023/09/10 06:16:47;;;;;;;;;11.00;11.00;;;;;;;;6307141;22;45281;-75
2023/09/10 06:19:12;;;;;;;;;14.67;13.67;;;;;;;;6306434;22;46106;-75
2023/09/10 06:21:37;;;;;;;;;12.00;12.00;;;;;;;;6306863;22;45722;-76
2023/09/10 06:24:03;;;;;;;;;15.33;13.33;;;;;;;;6307679;22;45252;-75
2023/09/10 06:26:28;;;;;;;;;16.00;15.33;;;;;;;;6278667;22;45696;-74
2023/09/10 06:28:53;;;;;;;;;14.67;12.00;;;;;;;;6307959;22;45518;-75
2023/09/10 06:31:18;;;;;;;;;18.33;16.67;;;;;;;;6307374;22;45697;-74
2023/09/10 06:33:44;;;;;;;;;18.00;13.67;;;;;;;;6308181;22;45489;-75
2023/09/10 06:36:09;;;;;;;;;14.33;14.00;;;;;;;;6307905;22;45620;-76
2023/09/10 06:38:34;;;;;;;;;13.33;13.33;;;;;;;;6277803;22;46987;-75
2023/09/10 06:40:59;;;;;;;;;15.67;15.00;;;;;;;;6278060;22;45259;-75
2023/09/10 06:43:24;;;;;;;;;16.33;14.00;;;;;;;;6278937;22;45279;-75
2023/09/10 06:45:51;;;;;;;;;14.00;14.00;;;;;;;;6277882;22;45866;-75
2023/09/10 06:48:16;;;;;;;;;13.67;13.67;;;;;;;;6306628;22;45483;-75
2023/09/10 06:50:41;;;;;;;;;13.00;13.00;;;;;;;;6307695;22;45307;-75
2023/09/10 06:53:06;;;;;;;;;16.67;13.00;;;;;;;;6278540;22;45209;-75
2023/09/10 06:55:31;;;;;;;;;14.67;14.33;;;;;;;;6307526;22;45159;-75
2023/09/10 06:57:57;;;;;;;;;18.33;15.67;;;;;;;;6307193;22;45435;-75
2023/09/10 07:00:22;;;;;;;;;18.67;13.00;;;;;;;;6278089;22;45187;-75
2023/09/10 07:02:47;;;;;;;;;18.67;15.00;;;;;;;;6306928;22;45237;-75
2023/09/10 07:05:13;;;;;;;;;15.33;14.00;;;;;;;;6278243;22;45632;-75
2023/09/10 07:07:38;;;;;;;;;14.33;12.00;;;;;;;;6278057;22;45463;-75
2023/09/10 07:10:03;;;;;;;;;16.75;15.50;;;;;;;;6278015;22;45821;-75
2023/09/10 07:12:28;;;;;;;;;17.50;15.50;;;;;;;;6308482;22;45184;-76
2023/09/10 07:14:54;;;;;;;;;16.50;13.00;;;;;;;;6308144;22;45348;-75
2023/09/10 07:17:19;;;;;;;;;14.25;12.25;;;;;;;;6307981;22;45257;-75
2023/09/10 07:19:44;;;;;;;;;17.00;15.25;;;;;;;;6308445;22;45307;-75
2023/09/10 07:22:09;;;;;;;;;14.00;14.00;;;;;;;;6308393;22;45310;-75
2023/09/10 07:24:35;;;;;;;;;13.25;11.00;;;;;;;;6280195;22;46775;-75
2023/09/10 07:27:01;;;;;;;;;14.75;14.75;;;;;;;;6308092;22;45883;-72
2023/09/10 07:29:27;;;;;;;;;17.75;13.75;;;;;;;;6308319;22;45296;-73
2023/09/10 07:31:52;;;;;;;;;14.50;13.50;;;;;;;;6307692;22;45331;-73
2023/09/10 07:34:18;;;;;;;;;17.00;14.25;;;;;;;;6308131;22;45438;-73
2023/09/10 07:36:44;;;;;;;;;16.50;12.75;;;;;;;;6307356;22;45275;-73
2023/09/10 07:39:09;;;;;;;;;12.00;10.50;;;;;;;;6306436;22;45150;-78
2023/09/10 07:41:34;;;;;;;;;9.50;7.75;;;;;;;;6305468;22;45210;-78
2023/09/10 07:44:00;;;;;;;;;16.50;13.75;;;;;;;;6306968;22;45496;-74
2023/09/10 07:46:25;;;;;;;;;11.25;11.25;;;;;;;;6278438;22;46481;-75
2023/09/10 07:48:50;;;;;;;;;14.75;13.00;;;;;;;;6280159;22;45155;-76
2023/09/10 07:51:15;;;;;;;;;14.50;11.25;;;;;;;;6308575;22;45159;-76
2023/09/10 07:53:40;;;;;;;;;11.25;10.00;;;;;;;;6308481;22;45359;-76
2023/09/10 07:56:06;;;;;;;;;13.50;9.50;;;;;;;;6279986;22;47298;-76
2023/09/10 07:58:31;;;;;;;;;13.75;9.75;;;;;;;;6308488;22;45102;-76
2023/09/10 08:00:56;;;;;;;;;11.50;10.50;;;;;;;;6307834;22;45152;-76
2023/09/10 08:03:22;;;;;;;;;13.50;13.50;;;;;;;;6279716;22;46702;-75
2023/09/10 08:05:47;;;;;;;;;11.75;10.75;;;;;;;;6307951;22;45272;-76
2023/09/10 08:08:12;;;;;;;;;11.50;10.75;;;;;;;;6253654;22;45210;-76
2023/09/10 08:10:37;;;;;;;;;11.75;10.50;;;;;;;;6308123;22;45303;-76
2023/09/10 08:13:03;;;;;;;;;11.50;10.25;;;;;;;;6307434;22;45506;-75
2023/09/10 08:15:29;;;;;;;;;9.00;8.60;;;;;;;;6279465;22;48152;-76
2023/09/10 08:17:55;;;;;;;;;10.75;8.25;;;;;;;;6280371;22;45227;-75
2023/09/10 08:20:20;;;;;;;;;11.60;10.00;;;;;;;;6279202;22;45433;-76
2023/09/10 08:22:46;;;;;;;;;9.00;9.00;;;;;;;;6279519;22;45501;-75
2023/09/10 08:25:11;;;;;;;;;11.25;10.25;;;;;;;;6308005;22;45282;-76
2023/09/10 08:27:37;;;;;;;;;10.00;10.00;;;;;;;;6308632;22;45353;-77
2023/09/10 08:30:05;;;;;;;;;12.00;11.00;;;;;;;;6308016;22;45255;-76
2023/09/10 08:32:30;;;;;;;;;12.60;11.80;;;;;;;;6307233;22;45174;-77
2023/09/10 08:34:56;;;;;;;;;9.25;9.00;;;;;;;;6308138;22;45387;-76
2023/09/10 08:37:21;;;;;;;;;10.50;10.25;;;;;;;;6308708;22;45303;-77
2023/09/10 08:39:48;;;;;;;;;10.25;9.00;;;;;;;;6308184;22;45102;-77
2023/09/10 08:42:34;;;;;;;;;14.40;11.40;;;;;;;;6309401;22;45376;-77
2023/09/10 08:45:05;;;;;;;;;10.60;10.20;;;;;;;;6307601;22;46644;-77
2023/09/10 08:47:36;;;;;;;;;8.20;8.20;;;;;;;;6305868;22;45165;-78
2023/09/10 08:50:04;;;;;;;;;9.60;9.60;;;;;;;;6277723;22;45400;-75
2023/09/10 08:52:30;;;;;;;;;11.20;9.40;;;;;;;;6307600;22;45651;-77
2023/09/10 08:54:55;;;;;;;;;10.00;9.00;;;;;;;;6305889;22;46228;-76
2023/09/10 08:57:23;;;;;;;;;11.00;10.00;;;;;;;;6278844;22;45249;-76
2023/09/10 08:59:49;;;;;;;;;10.80;9.60;;;;;;;;6274013;22;45241;-77
2023/09/10 09:02:14;;;;;;;;;9.00;7.50;;;;;;;;6306660;22;45254;-77
2023/09/10 09:04:39;;;;;;;;;12.00;11.00;;;;;;;;6278474;22;46947;-75
2023/09/10 09:07:06;;;;;;;;;10.50;10.25;;;;;;;;6306279;22;45385;-77
2023/09/10 09:09:39;;;;;;;;;11.80;8.40;;;;;;;;6307145;22;45209;-77
2023/09/10 09:12:05;;;;;;;;;15.20;11.40;;;;;;;;6306218;22;45292;-77
2023/09/10 09:14:31;;;;;;;;;12.20;10.80;;;;;;;;6306672;22;45365;-78
2023/09/10 09:16:57;;;;;;;;;12.50;9.00;;;;;;;;6277390;22;45696;-78
2023/09/10 09:19:22;;;;;;;;;10.60;8.80;;;;;;;;6278583;22;45217;-77
2023/09/10 09:21:49;;;;;;;;;14.25;11.00;;;;;;;;6306002;22;45300;-76
2023/09/10 09:24:14;;;;;;;;;10.20;10.20;;;;;;;;6278466;22;47314;-78
2023/09/10 09:26:41;;;;;;;;;12.50;10.75;;;;;;;;6279353;22;45512;-76
2023/09/10 09:29:07;;;;;;;;;15.20;12.00;;;;;;;;6308039;22;45355;-77
2023/09/10 09:31:32;;;;;;;;;13.75;12.75;;;;;;;;6307752;22;45126;-79
2023/09/10 09:33:58;;;;;;;;;9.00;9.00;;;;;;;;6308203;22;45845;-78
2023/09/10 09:36:27;;;;;;;;;9.00;9.00;;;;;;;;6308370;22;45196;-78
2023/09/10 09:38:52;;;;;;;;;12.00;11.80;;;;;;;;6308068;22;45216;-78
2023/09/10 09:41:17;;;;;;;;;9.25;8.00;;;;;;;;6307893;22;45304;-77
2023/09/10 09:43:43;;;;;;;;;12.50;9.50;;;;;;;;6307800;22;46050;-78
2023/09/10 09:46:08;;;;;;;;;10.00;9.00;;;;;;;;6307496;22;45713;-77
2023/09/10 09:48:34;;;;;;;;;13.75;13.75;;;;;;;;6279603;22;45226;-76
2023/09/10 09:51:00;;;;;;;;;13.00;11.75;;;;;;;;6279694;22;45781;-77
2023/09/10 09:53:26;;;;;;;;;11.25;11.25;;;;;;;;6279358;22;46862;-75
2023/09/10 09:56:01;;;;;;;;;12.60;12.60;;;;;;;;6279800;22;45147;-76
2023/09/10 09:58:29;;;;;;;;;14.20;12.80;;;;;;;;6308244;22;45233;-76
2023/09/10 10:00:55;;;;;;;;;12.00;11.00;;;;;;;;6304326;22;45221;-78
2023/09/10 10:03:20;;;;;;;;;9.60;9.60;;;;;;;;6305903;22;46217;-77
2023/09/10 10:05:49;;;;;;;;;12.25;11.75;;;;;;;;6306449;22;45212;-77
2023/09/10 10:08:15;;;;;;;;;24.75;22.50;;;;;;;;6305204;22;45185;-76
2023/09/10 10:10:50;;;;;;;;;13.50;12.25;;;;;;;;6306826;22;45469;-76
2023/09/10 10:13:19;;;;;;;;;15.20;13.40;;;;;;;;6306793;22;46108;-77
2023/09/10 10:15:48;;;;;;;;;9.20;8.80;;;;;;;;6277985;22;45373;-77
2023/09/10 10:18:18;;;;;;;;;13.40;12.00;;;;;;;;6275012;22;45339;-76
2023/09/10 10:20:47;;;;;;;;;13.60;13.60;;;;;;;;6306087;22;45401;-79
2023/09/10 10:23:13;;;;;;;;;16.20;13.00;;;;;;;;6305507;22;45487;-76
2023/09/10 10:25:39;;;;;;;;;11.00;10.00;;;;;;;;6306404;22;45239;-78
2023/09/10 10:28:07;;;;;;;;;10.80;10.00;;;;;;;;6307245;22;45277;-78
2023/09/10 10:30:34;;;;;;;;;12.40;11.20;;;;;;;;6277959;22;45989;-77
2023/09/10 10:33:02;;;;;;;;;8.40;7.60;;;;;;;;6307122;22;45601;-76
2023/09/10 10:35:32;;;;;;;;;9.00;9.00;;;;;;;;6278910;22;45522;-75
2023/09/10 10:37:58;;;;;;;;;12.80;12.80;;;;;;;;6308888;22;45160;-74
2023/09/10 10:40:27;;;;;;;;;14.60;11.60;;;;;;;;6308557;22;45229;-75
2023/09/10 10:42:52;;;;;;;;;11.00;10.00;;;;;;;;6308690;22;46083;-76
2023/09/10 10:45:18;;;;;;;;;13.00;13.00;;;;;;;;6308532;22;45211;-76
2023/09/10 10:47:44;;;;;;;;;12.75;11.25;;;;;;;;6308432;22;45183;-75
2023/09/10 10:50:10;;;;;;;;;14.40;13.00;;;;;;;;6309211;22;45220;-75
2023/09/10 10:52:38;;;;;;;;;11.80;11.00;;;;;;;;6309479;22;45169;-77
2023/09/10 10:55:04;;;;;;;;;12.20;11.00;;;;;;;;6308626;22;45102;-77
2023/09/10 10:57:30;;;;;;;;;15.20;15.20;;;;;;;;6309369;22;45207;-75
2023/09/10 10:59:55;;;;;;;;;17.25;13.00;;;;;;;;6280222;22;45408;-75
2023/09/10 11:02:22;;;;;;;;;14.25;13.75;;;;;;;;6308734;22;46363;-77
2023/09/10 11:05:03;;;;;;;;;15.00;14.00;;;;;;;;6281046;22;45302;-76
2023/09/10 11:07:29;;;;;;;;;12.00;12.00;;;;;;;;6281034;22;45264;-77
2023/09/10 11:09:58;;;;;;;;;12.75;11.75;;;;;;;;6308675;22;45567;-77
2023/09/10 11:12:25;;;;;;;;;14.20;13.20;;;;;;;;6305999;22;45983;-76
2023/09/10 11:14:59;;;;;;;;;17.60;15.60;;;;;;;;6276547;22;45577;-77
2023/09/10 11:17:26;;;;;;;;;16.80;13.20;;;;;;;;6308224;22;45299;-76
2023/09/10 11:19:51;;;;;;;;;13.00;13.00;;;;;;;;6279163;22;46185;-76
2023/09/10 11:22:16;;;;;;;;;15.75;12.25;;;;;;;;6305130;22;46331;-76
2023/09/10 11:24:41;;;;;;;;;16.50;13.75;;;;;;;;6309234;22;45152;-75
2023/09/10 11:27:21;;;;;;;;;12.00;12.00;;;;;;;;6280748;22;45152;-75
2023/09/10 11:30:02;;;;;;;;;12.20;12.00;;;;;;;;6307224;22;45460;-75
2023/09/10 11:32:27;;;;;;;;;11.80;10.80;;;;;;;;6308490;22;45331;-78
2023/09/10 11:35:13;;;;;;;;;13.75;13.25;;;;;;;;6280709;22;45301;-77
2023/09/10 11:37:38;;;;;;;;;15.60;15.60;;;;;;;;6280279;22;45145;-77
2023/09/10 11:40:03;;;;;;;;;15.00;14.75;;;;;;;;6308160;22;45207;-76
2023/09/10 11:42:28;;;;;;;;;21.75;19.25;;;;;;;;6308839;22;46227;-78
2023/09/10 11:44:55;;;;;;;;;17.50;16.00;;;;;;;;6308451;22;45358;-77
2023/09/10 11:47:20;;;;;;;;;18.60;18.40;;;;;;;;6308029;22;45342;-75
2023/09/10 11:49:45;;;;;;;;;13.75;13.75;;;;;;;;6309214;22;45216;-75
2023/09/10 11:52:11;;;;;;;;;19.00;16.50;;;;;;;;6308669;22;45310;-79
2023/09/10 11:54:36;;;;;;;;;14.00;13.50;;;;;;;;6304208;22;45696;-78
2023/09/10 11:57:02;;;;;;;;;20.00;20.00;;;;;;;;6307205;22;45239;-76
2023/09/10 11:59:30;;;;;;;;;38.25;33.25;;;;;;;;6308334;22;45291;-74
2023/09/10 12:01:55;;;;;;;;;33.80;31.20;;;;;;;;6308224;22;45295;-76
2023/09/10 12:04:31;;;;;;;;;72.67;61.67;;;;;;;;6309796;22;45400;-77
2023/09/10 12:06:57;;;;;;;;;36.20;32.60;;;;;;;;6306433;22;45211;-77
2023/09/10 12:09:22;;;;;;;;;37.50;34.00;;;;;;;;6307934;22;45144;-77
2023/09/10 12:11:49;;;;;;;;;49.75;39.75;;;;;;;;6306690;22;45246;-77
2023/09/10 12:14:14;;;;;;;;;31.20;29.00;;;;;;;;6307431;22;45192;-77
2023/09/10 12:16:39;;;;;;;;;33.00;29.50;;;;;;;;6306681;22;45271;-78
2023/09/10 12:19:05;;;;;;;;;13.00;12.00;;;;;;;;6306927;22;45397;-78
2023/09/10 12:21:31;;;;;;;;;32.00;29.75;;;;;;;;6307758;22;45285;-77
2023/09/10 12:23:56;;;;;;;;;16.75;15.00;;;;;;;;6277037;22;45421;-77
2023/09/10 12:26:21;;;;;;;;;14.00;11.75;;;;;;;;6307507;22;45189;-77
2023/09/10 12:28:48;;;;;;;;;15.50;12.50;;;;;;;;6306081;22;45264;-77
2023/09/10 12:31:13;;;;;;;;;16.20;14.40;;;;;;;;6306801;22;45339;-75
2023/09/10 12:33:38;;;;;;;;;13.50;12.25;;;;;;;;6307132;22;45249;-78
2023/09/10 12:36:03;;;;;;;;;15.50;14.50;;;;;;;;6278953;22;45418;-78
2023/09/10 12:38:29;;;;;;;;;16.75;15.50;;;;;;;;6303143;22;45196;-78
2023/09/10 12:40:54;;;;;;;;;16.25;15.00;;;;;;;;6304850;22;45231;-76
2023/09/10 12:43:20;;;;;;;;;46.25;38.25;;;;;;;;6306145;22;45357;-75
2023/09/10 12:45:49;;;;;;;;;15.75;14.25;;;;;;;;6279926;22;45240;-76
2023/09/10 12:48:17;;;;;;;;;23.60;22.00;;;;;;;;6308335;22;45264;-75
2023/09/10 12:50:43;;;;;;;;;13.60;13.40;;;;;;;;6279041;22;46788;-77
2023/09/10 12:53:08;;;;;;;;;10.50;10.00;;;;;;;;6308419;22;45298;-76
2023/09/10 12:55:34;;;;;;;;;13.50;12.00;;;;;;;;6308597;22;45433;-78
2023/09/10 12:57:59;;;;;;;;;14.00;12.00;;;;;;;;6309246;22;45256;-77
2023/09/10 13:00:25;;;;;;;;;13.50;13.25;;;;;;;;6308250;22;45411;-79
2023/09/10 13:02:50;;;;;;;;;11.80;9.60;;;;;;;;6309026;22;45298;-78
2023/09/10 13:05:16;;;;;;;;;13.00;13.00;;;;;;;;6307682;22;45181;-78
2023/09/10 13:07:42;;;;;;;;;15.50;15.50;;;;;;;;6280277;22;45840;-79
2023/09/10 13:10:08;;;;;;;;;15.00;14.00;;;;;;;;6281972;22;46189;-79
2023/09/10 13:12:34;;;;;;;;;12.00;10.60;;;;;;;;6308983;22;45271;-79
2023/09/10 13:14:59;;;;;;;;;15.25;13.25;;;;;;;;6308795;22;45283;-78
2023/09/10 13:17:24;;;;;;;;;15.75;13.00;;;;;;;;6307928;22;45271;-79
2023/09/10 13:19:49;;;;;;;;;9.75;9.75;;;;;;;;6308049;22;45174;-79
2023/09/10 13:22:15;;;;;;;;;8.50;8.50;;;;;;;;6308138;22;45336;-79
2023/09/10 13:24:40;;;;;;;;;13.00;10.00;;;;;;;;6308576;22;45326;-78
2023/09/10 13:27:05;;;;;;;;;13.25;11.75;;;;;;;;6278920;22;46636;-79
2023/09/10 13:29:31;;;;;;;;;12.50;11.75;;;;;;;;6279382;22;47673;-80
2023/09/10 13:31:56;;;;;;;;;13.50;12.00;;;;;;;;6306794;22;45389;-79
2023/09/10 13:34:21;;;;;;;;;12.75;11.25;;;;;;;;6280385;22;45400;-80
2023/09/10 13:36:46;;;;;;;;;13.25;13.25;;;;;;;;6307564;22;45456;-80
2023/09/10 13:39:12;;;;;;;;;10.75;10.75;;;;;;;;6308441;22;46414;-79
2023/09/10 13:41:37;;;;;;;;;10.00;9.50;;;;;;;;6280073;22;45278;-79
2023/09/10 13:44:02;;;;;;;;;11.00;8.00;;;;;;;;6280816;22;45250;-79
2023/09/10 13:46:28;;;;;;;;;10.50;9.75;;;;;;;;6279757;22;46150;-80
2023/09/10 13:48:53;;;;;;;;;12.50;10.25;;;;;;;;6280061;22;45932;-79
2023/09/10 13:51:18;;;;;;;;;9.25;9.25;;;;;;;;6307512;22;45414;-78
2023/09/10 13:53:44;;;;;;;;;12.75;9.75;;;;;;;;6308670;22;45274;-79
2023/09/10 13:56:10;;;;;;;;;10.00;9.25;;;;;;;;6307772;22;45246;-78
2023/09/10 13:58:35;;;;;;;;;29.25;26.75;;;;;;;;6307523;22;45245;-78
2023/09/10 14:01:03;;;;;;;;;19.25;18.75;;;;;;;;6307368;22;45508;-78
2023/09/10 14:03:28;;;;;;;;;12.40;11.80;;;;;;;;6307864;22;45119;-77
2023/09/10 14:05:54;;;;;;;;;14.00;13.00;;;;;;;;6307165;22;45191;-79
2023/09/10 14:08:20;;;;;;;;;14.40;13.60;;;;;;;;6307069;22;45231;-78
2023/09/10 14:10:45;;;;;;;;;10.75;10.50;;;;;;;;6307205;22;45219;-78
2023/09/10 14:13:10;;;;;;;;;10.00;10.00;;;;;;;;6309290;22;45204;-79
2023/09/10 14:15:35;;;;;;;;;11.25;10.75;;;;;;;;6279368;22;45913;-77
2023/09/10 14:18:00;;;;;;;;;12.00;11.00;;;;;;;;6308880;22;46114;-78
2023/09/10 14:20:26;;;;;;;;;8.00;7.25;;;;;;;;6308210;22;45564;-77
2023/09/10 14:22:52;;;;;;;;;11.50;11.00;;;;;;;;6309423;22;45215;-77
2023/09/10 14:25:17;;;;;;;;;9.40;8.40;;;;;;;;6308999;22;45621;-78
2023/09/10 14:27:43;;;;;;;;;11.00;9.50;;;;;;;;6308964;22;45962;-78
2023/09/10 14:30:08;;;;;;;;;11.50;11.00;;;;;;;;6308847;22;45537;-76
2023/09/10 14:32:36;;;;;;;;;9.00;8.00;;;;;;;;6308675;22;45184;-76
2023/09/10 14:35:01;;;;;;;;;11.40;11.40;;;;;;;;6308991;22;45224;-76
2023/09/10 14:37:26;;;;;;;;;12.50;12.50;;;;;;;;6308553;22;46242;-76
2023/09/10 14:39:51;;;;;;;;;9.25;8.50;;;;;;;;6308614;22;45260;-77
2023/09/10 14:42:16;;;;;;;;;11.75;11.75;;;;;;;;6308932;22;45358;-78
2023/09/10 14:44:42;;;;;;;;;9.75;9.75;;;;;;;;6309151;22;45166;-77
2023/09/10 14:47:07;;;;;;;;;9.00;8.00;;;;;;;;6279608;22;46578;-77
2023/09/10 14:49:32;;;;;;;;;9.75;9.75;;;;;;;;6308660;22;45269;-76
2023/09/10 14:51:57;;;;;;;;;11.00;8.50;;;;;;;;6308361;22;45233;-76
2023/09/10 14:54:22;;;;;;;;;8.25;8.25;;;;;;;;6308401;22;45106;-74
2023/09/10 14:56:47;;;;;;;;;8.75;8.75;;;;;;;;6306934;22;45372;-76
2023/09/10 14:59:13;;;;;;;;;11.00;9.00;;;;;;;;6302629;22;45212;-76
2023/09/10 15:01:38;;;;;;;;;7.25;6.75;;;;;;;;6300273;22;45218;-75
2023/09/10 15:04:04;;;;;;;;;10.50;9.50;;;;;;;;6303610;22;45331;-76
2023/09/10 15:06:29;;;;;;;;;11.50;10.00;;;;;;;;6277861;22;45801;-74
2023/09/10 15:08:54;;;;;;;;;9.25;9.25;;;;;;;;6306031;22;45347;-75
2023/09/10 15:11:19;;;;;;;;;10.00;10.00;;;;;;;;6277425;22;45276;-74
2023/09/10 15:13:44;;;;;;;;;7.00;7.00;;;;;;;;6278605;22;45952;-77
2023/09/10 15:16:12;;;;;;;;;9.40;9.40;;;;;;;;6303793;22;46468;-76
2023/09/10 15:18:37;;;;;;;;;7.40;7.40;;;;;;;;6306603;22;45322;-75
2023/09/10 15:21:02;;;;;;;;;9.00;8.00;;;;;;;;6307017;22;45600;-77
2023/09/10 15:23:28;;;;;;;;;10.75;9.25;;;;;;;;6306178;22;45284;-77
2023/09/10 15:25:53;;;;;;;;;8.50;8.50;;;;;;;;6307384;22;45347;-76
2023/09/10 15:28:18;;;;;;;;;7.25;6.75;;;;;;;;6306681;22;45451;-78
2023/09/10 15:30:43;;;;;;;;;8.75;8.25;;;;;;;;6304203;22;45329;-76
2023/09/10 15:33:09;;;;;;;;;10.75;8.75;;;;;;;;6302366;22;45307;-76
2023/09/10 15:35:34;;;;;;;;;7.00;7.00;;;;;;;;6305215;22;45412;-76
2023/09/10 15:37:59;;;;;;;;;7.75;7.75;;;;;;;;6305551;22;45289;-77
2023/09/10 15:40:24;;;;;;;;;23.25;20.50;;;;;;;;6276682;22;45359;-76
2023/09/10 15:42:49;;;;;;;;;8.00;8.00;;;;;;;;6305290;22;45307;-77
2023/09/10 15:45:15;;;;;;;;;6.50;6.50;;;;;;;;6305212;22;45208;-77
2023/09/10 15:47:40;;;;;;;;;10.00;10.00;;;;;;;;6304847;22;45239;-79
2023/09/10 15:50:05;;;;;;;;;7.75;7.75;;;;;;;;6305225;22;45257;-76
2023/09/10 15:52:31;;;;;;;;;10.00;9.00;;;;;;;;6304841;22;45209;-79
2023/09/10 15:54:56;;;;;;;;;6.75;6.75;;;;;;;;6305066;22;45257;-78
2023/09/10 15:57:21;;;;;;;;;11.25;9.25;;;;;;;;6305017;22;45266;-79
2023/09/10 15:59:46;;;;;;;;;10.50;9.00;;;;;;;;6304800;22;45298;-79
2023/09/10 16:02:22;;;;;;;;;12.00;8.00;;;;;;;;6305113;22;45322;-79
2023/09/10 16:04:47;;;;;;;;;7.40;7.00;;;;;;;;6276736;22;47146;-78
2023/09/10 16:07:13;;;;;;;;;9.50;8.25;;;;;;;;6304479;22;45216;-76
2023/09/10 16:09:38;;;;;;;;;7.75;7.50;;;;;;;;6304162;22;45511;-76
2023/09/10 16:12:04;;;;;;;;;10.00;10.00;;;;;;;;6304284;22;45289;-77
2023/09/10 16:14:29;;;;;;;;;9.25;8.25;;;;;;;;6304616;22;46608;-76
2023/09/10 16:16:55;;;;;;;;;11.50;10.75;;;;;;;;6303865;22;45358;-76
2023/09/10 16:19:20;;;;;;;;;9.40;8.80;;;;;;;;6305326;22;45240;-76
2023/09/10 16:21:45;;;;;;;;;7.50;7.00;;;;;;;;6305136;22;44983;-76
2023/09/10 16:24:11;;;;;;;;;10.25;8.75;;;;;;;;6304828;22;45271;-77
2023/09/10 16:26:36;;;;;;;;;12.00;10.50;;;;;;;;6276436;22;45954;-75
2023/09/10 16:29:01;;;;;;;;;8.75;7.25;;;;;;;;6305462;22;45295;-78
2023/09/10 16:31:27;;;;;;;;;10.25;9.00;;;;;;;;6303709;22;45255;-76
2023/09/10 16:33:52;;;;;;;;;11.75;8.50;;;;;;;;6303296;22;45886;-77
2023/09/10 16:36:18;;;;;;;;;8.50;7.50;;;;;;;;6303755;22;45227;-76
2023/09/10 16:38:43;;;;;;;;;6.00;6.00;;;;;;;;6303769;22;45370;-75
2023/09/10 16:41:08;;;;;;;;;9.25;7.25;;;;;;;;6303680;22;45208;-75
2023/09/10 16:43:33;;;;;;;;;11.00;8.25;;;;;;;;6303575;22;45308;-76
2023/09/10 16:45:59;;;;;;;;;8.75;8.75;;;;;;;;6302102;22;45267;-76
2023/09/10 16:48:24;;;;;;;;;10.75;10.00;;;;;;;;6274853;22;45496;-77
2023/09/10 16:50:49;;;;;;;;;9.00;8.50;;;;;;;;6302128;22;45374;-77
2023/09/10 16:53:14;;;;;;;;;8.00;8.00;;;;;;;;6271542;22;45887;-75
2023/09/10 16:55:40;;;;;;;;;8.75;8.75;;;;;;;;6304900;22;45289;-75
2023/09/10 16:58:05;;;;;;;;;8.50;8.50;;;;;;;;6275312;22;45322;-75
2023/09/10 17:00:30;;;;;;;;;8.00;7.00;;;;;;;;6305291;22;45378;-77
2023/09/10 17:02:56;;;;;;;;;10.75;9.00;;;;;;;;6277696;22;47382;-76
2023/09/10 17:05:21;;;;;;;;;8.50;8.50;;;;;;;;6277041;22;45371;-75
2023/09/10 17:07:47;;;;;;;;;7.75;7.75;;;;;;;;6277378;22;45250;-75
2023/09/10 17:10:12;;;;;;;;;11.25;8.25;;;;;;;;6276319;22;46011;-75
2023/09/10 17:12:37;;;;;;;;;10.00;8.00;;;;;;;;6305702;22;45125;-75
2023/09/10 17:15:03;;;;;;;;;9.75;9.75;;;;;;;;6306545;22;45708;-75
2023/09/10 17:17:33;;;;;;;;;10.00;10.00;;;;;;;;6307916;22;45196;-75
2023/09/10 17:19:58;;;;;;;;;8.80;8.80;;;;;;;;6308130;22;45569;-77
2023/09/10 17:22:23;;;;;;;;;8.25;8.25;;;;;;;;6307993;22;45259;-76
2023/09/10 17:24:49;;;;;;;;;8.00;8.00;;;;;;;;6308223;22;45181;-76
2023/09/10 17:27:14;;;;;;;;;10.50;9.75;;;;;;;;6308097;22;45315;-76
2023/09/10 17:29:39;;;;;;;;;8.75;8.00;;;;;;;;6307502;22;45222;-75
2023/09/10 17:32:04;;;;;;;;;10.50;9.00;;;;;;;;6307333;22;45627;-75
2023/09/10 17:34:30;;;;;;;;;11.25;10.25;;;;;;;;6308258;22;45231;-74
2023/09/10 17:36:55;;;;;;;;;10.25;9.25;;;;;;;;6308199;22;45278;-74
2023/09/10 17:39:20;;;;;;;;;11.00;10.00;;;;;;;;6307895;22;45333;-74
2023/09/10 17:41:46;;;;;;;;;12.25;11.00;;;;;;;;6307339;22;45521;-79
2023/09/10 17:44:11;;;;;;;;;9.75;9.00;;;;;;;;6308484;22;45319;-78
2023/09/10 17:46:36;;;;;;;;;11.75;11.00;;;;;;;;6308098;22;45220;-77
2023/09/10 17:49:01;;;;;;;;;9.50;8.75;;;;;;;;6308166;22;45235;-77
2023/09/10 17:51:27;;;;;;;;;15.50;14.50;;;;;;;;6307881;22;46170;-78
2023/09/10 17:53:52;;;;;;;;;45.33;39.00;;;;;;;;6308127;22;45071;-78
2023/09/10 17:56:17;;;;;;;;;56.33;44.00;;;;;;;;6280161;22;45186;-78
2023/09/10 17:58:43;;;;;;;;;85.25;80.25;;;;;;;;6306412;22;45204;-78
2023/09/10 18:01:08;;;;;;;;;73.33;65.33;;;;;;;;6307465;22;45353;-78
2023/09/10 18:03:33;;;;;;;;;54.00;44.67;;;;;;;;6308118;22;45210;-78
2023/09/10 18:05:58;;;;;;;;;51.33;40.33;;;;;;;;6279439;22;45254;-78
2023/09/10 18:08:24;;;;;;;;;54.33;44.00;;;;;;;;6279473;22;45551;-76
2023/09/10 18:10:50;;;;;;;;;17.25;17.25;;;;;;;;6307529;22;45748;-76
2023/09/10 18:13:15;;;;;;;;;45.50;36.00;;;;;;;;6308105;22;45095;-76
2023/09/10 18:15:41;;;;;;;;;38.25;32.00;;;;;;;;6307774;22;45474;-76
2023/09/10 18:18:06;;;;;;;;;27.25;26.25;;;;;;;;6308104;22;45643;-76
2023/09/10 18:20:31;;;;;;;;;27.00;24.50;;;;;;;;6307830;22;46224;-76
2023/09/10 18:22:56;;;;;;;;;21.00;17.00;;;;;;;;6306775;22;45445;-76
2023/09/10 18:25:21;;;;;;;;;17.50;17.00;;;;;;;;6307695;22;45410;-75
2023/09/10 18:27:47;;;;;;;;;14.50;14.50;;;;;;;;6279731;22;45349;-76
2023/09/10 18:30:12;;;;;;;;;16.00;15.50;;;;;;;;6306684;22;45384;-76
2023/09/10 18:32:39;;;;;;;;;17.00;15.00;;;;;;;;6307238;22;45240;-76
2023/09/10 18:35:04;;;;;;;;;16.75;15.25;;;;;;;;6306874;22;45337;-78
2023/09/10 18:37:29;;;;;;;;;15.75;14.75;;;;;;;;6278854;22;45828;-76
2023/09/10 18:39:55;;;;;;;;;17.50;14.00;;;;;;;;6278871;22;47286;-77
2023/09/10 18:42:20;;;;;;;;;16.00;16.00;;;;;;;;6307132;22;45212;-77
2023/09/10 18:44:45;;;;;;;;;18.00;17.00;;;;;;;;6307346;22;45165;-76
2023/09/10 18:47:12;;;;;;;;;15.75;14.75;;;;;;;;6307177;22;45311;-76
2023/09/10 18:49:38;;;;;;;;;15.40;14.60;;;;;;;;6307289;22;45247;-75
2023/09/10 18:52:04;;;;;;;;;16.00;15.50;;;;;;;;6278983;22;45502;-75
2023/09/10 18:54:30;;;;;;;;;13.80;10.80;;;;;;;;6307940;22;45490;-75
2023/09/10 18:56:55;;;;;;;;;14.50;13.25;;;;;;;;6307678;22;45409;-75
2023/09/10 18:59:20;;;;;;;;;17.75;16.00;;;;;;;;6309054;22;46461;-75
2023/09/10 19:01:45;;;;;;;;;16.00;16.00;;;;;;;;6308867;22;45239;-75
2023/09/10 19:04:10;;;;;;;;;15.00;14.00;;;;;;;;6309256;22;45156;-77
2023/09/10 19:06:35;;;;;;;;;18.75;15.00;;;;;;;;6280604;22;46723;-77
2023/09/10 19:09:01;;;;;;;;;13.50;13.50;;;;;;;;6308858;22;46072;-75
2023/09/10 19:11:26;;;;;;;;;18.75;16.25;;;;;;;;6308623;22;45194;-76
2023/09/10 19:13:51;;;;;;;;;17.75;15.75;;;;;;;;6309057;22;45119;-77
2023/09/10 19:16:16;;;;;;;;;16.75;16.50;;;;;;;;6308073;22;45509;-77
2023/09/10 19:18:41;;;;;;;;;16.25;15.00;;;;;;;;6308822;22;45708;-75
2023/09/10 19:21:07;;;;;;;;;19.00;18.25;;;;;;;;6308074;22;45254;-74
2023/09/10 19:23:32;;;;;;;;;16.25;16.25;;;;;;;;6280925;22;45255;-76
2023/09/10 19:25:57;;;;;;;;;16.50;16.25;;;;;;;;6308418;22;45246;-76
2023/09/10 19:28:22;;;;;;;;;19.75;17.75;;;;;;;;6308666;22;45767;-77
2023/09/10 19:30:51;;;;;;;;;18.75;16.00;;;;;;;;6307994;22;46453;-79
2023/09/10 19:33:17;;;;;;;;;16.00;16.00;;;;;;;;6309073;22;45330;-78
2023/09/10 19:35:42;;;;;;;;;17.75;17.00;;;;;;;;6279749;22;45586;-77
2023/09/10 19:38:07;;;;;;;;;17.50;17.50;;;;;;;;6308574;22;46195;-78
2023/09/10 19:40:33;;;;;;;;;20.25;18.50;;;;;;;;6308609;22;45168;-76
2023/09/10 19:42:58;;;;;;;;;24.00;19.25;;;;;;;;6307493;22;45187;-77
2023/09/10 19:45:23;;;;;;;;;17.75;16.00;;;;;;;;6308024;22;45158;-78